Terminal Aerodrome Forecast
Issued by NWS Lake Charles, LA

Home | Current Version | Previous Version | Text Only | Print | Product List | Glossary On
Versions: 1 2 3 4 5 6 7 8 9 10 11 12 13 14 15 16 17 18 19 20 21 22
000
FTUS44 KLCH 211324 AAA
TAFLCH
TAF AMD
KLCH 211324Z 2113/2212 15012KT P6SM OVC009
     FM211400 15012KT P6SM VCSH OVC009
     FM211600 16018G25KT P6SM VCTS OVC025CB
      TEMPO 2116/2120 3SM TSRA OVC007CB
     FM220100 16008KT P6SM VCSH OVC015=

USA.gov is the U.S. government's official web portal to all federal, state and local government web resources and services.